Laurence G Hanscom Field Bedford US
ICAO: KBED
IATA: BED
Category: Medium
Scheduled Services: No

Elevation: 133 ft
TransAlt. 18000 ft.

Airport Communications:
BOSTON APP/DEP:124.4
ATIS:124.6
CLNC DEL:121.85
CTAF:118.5
HANSCOM GND:121.7
HANSCOM COMD POST:39.71
HANSCOM TWR:118.5
UNICOM:122.95

KBED Zoom In..

If you have problems with the map follow the link
https://www.worldairports.se/pages/airport.php?
ICAO=KBED

Runways:

(A) RW 05 length 5107 ft width 150 ft
---- / hdg 53

(B) RW 11 length 7011 ft width 150 ft
ILS 111.15 / hdg 113

(C) RW 23 length 5107 ft width 150 ft
---- / hdg 233

(D) RW 29 length 7011 ft width 150 ft
ILS 111.15 / hdg 293

Location; KBED
Day. 23 / Time. 06.56 Zulu
* Altimeter: 30.16
* Temperature: 00° c. 32°f.
* Wind from: 000° Speed 00 kn.
Dewpoint: -02° c.
Visibility: 10 Statute Miles.
Clouds: Broken 9000 ft.

KBED 230656Z AUTO 00000KT 10SM BKN090 00/M02 A3016 RMK AO2 SLP226 T00001017


Wind - Calm.

 
 
jpsmedia.com for Web Design worldairports.se 2018   terms of use